Parramatta North, New South Wales

5:30 PM AEST on October 01, 2014 (GMT +1000)
INEWSOUT126 | Change Station
CLOSE
Current Station
Personal Weather Station
Location: Telopea, NEW SOUTH WALES
Elevation: 190 ft
Nearby Weather Stations

Elev 190 ft 33.79 °S, 151.04 °E | Updated 16 seconds ago

Clear
Clear
62.6 °F
Feels Like 62.6 °F
N
3.4
Wind Variable Wind from East

Today
High -- | Low -- °F
--% Chance of Precip.
Yesterday
High -- | Low -- °F
Precip. -- in
5:33 AM 5:58 PM
Waxing Crescent, 45% visible
Pressure 30.09 in
Visibility 6.2 miles
Clouds
Dew Point 34 °F
Humidity 34%
Rainfall -999.00 in
Snow Depth Not available.
UV Not available.
Pollen Not available.
Air Quality Not available.
Flu Activity Not available.
METAR YSRI 010700Z AUTO 13012KT 9999 // NCD 18/02 Q1019

More Conditions Fewer Conditions

Pressure 30.09 in
Visibility 6.2 miles
Clouds
Dew Point 34 °F
Humidity 34%
Rainfall -999.00 in
Snow Depth Not available.
UV Not available.
Pollen Not available.
Air Quality Not available.
Flu Activity Not available.
METAR YSRI 010700Z AUTO 13012KT 9999 // NCD 18/02 Q1019

More Conditions Fewer Conditions

10-Day Weather Forecast

Almanac

Astronomy

Oct. 01, 2014 Rise Set
Actual Time 5:33 AM AEST 5:58 PM AEST
Civil Twilight 5:08 AM AEST 6:23 PM AEST
Nautical Twilight 4:39 AM AEST 6:52 PM AEST
Astronomical Twilight 4:09 AM AEST 7:22 PM AEST
Moon 10:16 AM AEST No Moon Set
Length of Visible Light 13h 14m
Length of Day
12h 24m
Tomorrow will be 2m 5s longer.
Waxing Crescent, 45% of the Moon is Illuminated
Today
Waxing Crescent
Oct 1
First Quarter
Oct 8
Full
Oct 15
Last Quarter
Oct 23
New

Yesterday's Extremes

Country Highs Country Lows

Community

WunderPhotos

Upload Photos

1,757,898 photos uploaded!

Nearby

Snow Depth

Not available.

Earthquake Activity

City Distance Mag. Time & Date
No recent earthquake activity has been reported nearby.
Minimum magnitude displayed is 2.5.

Coastal Water Temperatures

Place Temperature
No Stations Reporting

Nearby Weather Stations